createdAt,value
2023-10-01T00:02:00.234Z,1
2023-10-01T00:14:02.714Z,1
2023-10-01T00:26:00.396Z,1
2023-10-01T00:38:00.237Z,1
2023-10-01T00:50:00.384Z,1
2023-10-01T01:02:00.473Z,1
2023-10-01T01:14:00.300Z,1
2023-10-01T01:26:00.361Z,1
2023-10-01T01:38:00.384Z,1
2023-10-01T01:50:00.366Z,1
2023-10-01T02:02:00.415Z,1
2023-10-01T02:14:00.299Z,1
2023-10-01T02:26:00.414Z,1
2023-10-01T02:38:00.409Z,1
2023-10-01T02:50:00.355Z,1
2023-10-01T03:02:00.679Z,1
2023-10-01T03:14:00.445Z,1
2023-10-01T03:26:00.436Z,1
2023-10-01T03:38:00.367Z,1
2023-10-01T03:50:00.588Z,1
2023-10-01T04:02:00.565Z,1
2023-10-01T04:14:00.477Z,1
2023-10-01T04:26:00.389Z,1
2023-10-01T04:38:00.638Z,1
2023-10-01T04:50:00.604Z,1
2023-10-01T05:02:00.608Z,1
2023-10-01T05:14:00.682Z,1
2023-10-01T05:26:00.602Z,1
2023-10-01T05:38:00.536Z,1
2023-10-01T05:50:00.581Z,3
2023-10-01T06:02:00.783Z,23
2023-10-01T06:14:00.640Z,47
2023-10-01T06:26:00.560Z,60
2023-10-01T06:38:00.569Z,68
2023-10-01T06:50:00.817Z,78
2023-10-01T07:02:00.785Z,80
2023-10-01T07:14:00.596Z,73
2023-10-01T07:26:00.805Z,88
2023-10-01T07:38:00.724Z,82
2023-10-01T07:50:00.702Z,88
2023-10-01T08:02:00.851Z,81
2023-10-01T08:14:00.813Z,83
2023-10-01T08:26:00.762Z,88
2023-10-01T08:38:00.865Z,90
2023-10-01T08:50:00.680Z,92
2023-10-01T09:02:00.989Z,91
2023-10-01T09:14:00.800Z,92
2023-10-01T09:26:00.934Z,92
2023-10-01T09:38:00.881Z,92
2023-10-01T09:50:01.048Z,94
2023-10-01T10:02:01.153Z,93
2023-10-01T10:14:00.998Z,94
2023-10-01T10:26:01.024Z,96
2023-10-01T10:38:01.064Z,96
2023-10-01T10:50:00.925Z,96
2023-10-01T11:14:01.045Z,96
2023-10-01T11:26:00.976Z,95
2023-10-01T11:38:00.938Z,96
2023-10-01T11:50:00.892Z,96
2023-10-01T12:02:01.109Z,96
2023-10-01T12:14:01.014Z,96
2023-10-01T12:26:01.072Z,96
2023-10-01T12:38:00.921Z,95
2023-10-01T12:50:01.335Z,95
2023-10-01T13:02:01.335Z,95
2023-10-01T13:14:01.129Z,94
2023-10-01T13:26:01.149Z,96
2023-10-01T13:38:01.136Z,95
2023-10-01T13:50:01.165Z,96
2023-10-01T14:02:01.096Z,96
2023-10-01T14:14:01.022Z,95
2023-10-01T14:26:01.158Z,95
2023-10-01T14:38:01.145Z,95
2023-10-01T14:50:01.112Z,95
2023-10-01T15:02:01.374Z,95
2023-10-01T15:14:01.099Z,94
2023-10-01T15:26:01.259Z,94
2023-10-01T15:38:01.387Z,93
2023-10-01T15:50:01.170Z,93
2023-10-01T16:02:01.214Z,93
2023-10-01T16:14:01.321Z,93
2023-10-01T16:26:01.337Z,93
2023-10-01T16:38:01.781Z,92
2023-10-01T16:50:01.336Z,90
2023-10-01T17:02:01.452Z,88
2023-10-01T17:14:01.251Z,85
2023-10-01T17:26:01.279Z,82
2023-10-01T17:38:01.398Z,76
2023-10-01T17:50:01.784Z,60
2023-10-01T18:02:01.679Z,31
2023-10-01T18:14:01.596Z,11
2023-10-01T18:26:01.407Z,2
2023-10-01T18:38:01.488Z,2
2023-10-01T18:50:01.311Z,1
2023-10-01T19:02:01.605Z,1
2023-10-01T19:14:01.574Z,1
2023-10-01T19:26:01.868Z,1
2023-10-01T19:38:01.417Z,1
2023-10-01T19:50:01.535Z,1
2023-10-01T20:02:01.527Z,1
2023-10-01T20:14:01.690Z,1
2023-10-01T20:26:01.488Z,1
2023-10-01T20:38:01.582Z,1
2023-10-01T20:50:01.527Z,4
2023-10-01T21:02:01.537Z,1
2023-10-01T21:14:01.744Z,1
2023-10-01T21:26:01.606Z,1
2023-10-01T21:38:01.514Z,1
2023-10-01T21:50:01.724Z,1
2023-10-01T22:02:01.732Z,1
2023-10-01T22:14:01.746Z,1
2023-10-01T22:26:01.548Z,1
2023-10-01T22:38:01.846Z,1
2023-10-01T22:50:01.950Z,1
2023-10-01T23:02:01.872Z,1
2023-10-01T23:14:01.755Z,1
2023-10-01T23:26:02.102Z,1
2023-10-01T23:38:01.739Z,1
2023-10-01T23:50:01.718Z,1
